createdAt,value
2023-01-06T00:00:08.249Z,8.40
2023-01-06T00:02:37.895Z,8.31
2023-01-06T00:05:06.299Z,8.26
2023-01-06T00:07:33.938Z,8.25
2023-01-06T00:10:02.911Z,8.19
2023-01-06T00:12:30.858Z,8.10
2023-01-06T00:15:00.742Z,8.05
2023-01-06T00:17:31.746Z,8.02
2023-01-06T00:19:59.489Z,8.08
2023-01-06T00:22:27.403Z,8.08
2023-01-06T00:24:55.291Z,8.03
2023-01-06T00:27:23.157Z,8.07
2023-01-06T00:29:53.448Z,8.12
2023-01-06T00:32:22.363Z,8.01
2023-01-06T00:34:50.184Z,7.94
2023-01-06T00:37:20.015Z,7.94
2023-01-06T00:39:49.068Z,7.95
2023-01-06T00:42:20.076Z,8.05
2023-01-06T00:44:50.077Z,8.05
2023-01-06T00:47:20.664Z,8.01
2023-01-06T00:49:48.883Z,7.98
2023-01-06T00:52:16.851Z,7.99
2023-01-06T00:54:46.130Z,7.92
2023-01-06T00:57:18.433Z,7.91
2023-01-06T00:59:46.040Z,7.86
2023-01-06T01:02:13.828Z,7.87
2023-01-06T01:04:41.887Z,7.84
2023-01-06T01:07:12.862Z,7.83
2023-01-06T01:09:42.984Z,7.89
2023-01-06T01:12:13.049Z,7.93
2023-01-06T01:14:54.619Z,7.95
2023-01-06T01:17:24.700Z,7.94
2023-01-06T01:19:54.547Z,7.87
2023-01-06T01:22:24.706Z,7.87
2023-01-06T01:24:52.400Z,7.88
2023-01-06T01:27:20.362Z,7.78
2023-01-06T01:29:48.040Z,7.61
2023-01-06T01:32:16.901Z,7.51
2023-01-06T01:34:44.561Z,7.47
2023-01-06T01:37:12.733Z,7.39
2023-01-06T01:39:41.956Z,7.46
2023-01-06T01:42:21.304Z,7.36
2023-01-06T01:44:54.008Z,7.31
2023-01-06T01:47:34.418Z,7.27
2023-01-06T01:50:27.273Z,7.30
2023-01-06T01:53:01.114Z,7.30
2023-01-06T01:55:32.050Z,7.30
2023-01-06T01:58:06.288Z,7.31
2023-01-06T02:00:37.637Z,7.31
2023-01-06T02:03:07.362Z,7.29
2023-01-06T02:05:39.367Z,7.26
2023-01-06T02:08:19.723Z,7.35
2023-01-06T02:10:47.348Z,7.36
2023-01-06T02:13:14.974Z,7.40
2023-01-06T02:15:45.735Z,7.41
2023-01-06T02:18:22.614Z,7.37
2023-01-06T02:21:32.925Z,7.45
2023-01-06T02:24:36.458Z,7.53
2023-01-06T02:27:22.067Z,7.67
2023-01-06T02:30:36.699Z,7.65
2023-01-06T02:33:18.798Z,7.63
2023-01-06T02:35:59.531Z,7.60
2023-01-06T02:38:38.958Z,7.58
2023-01-06T02:41:17.114Z,7.48
2023-01-06T02:43:53.949Z,7.35
2023-01-06T02:46:59.169Z,7.26
2023-01-06T02:49:45.184Z,7.15
2023-01-06T02:52:49.566Z,7.07
2023-01-06T02:55:51.265Z,6.97
2023-01-06T02:58:35.051Z,6.96
2023-01-06T03:01:10.684Z,7.04
2023-01-06T03:03:43.157Z,7.00
2023-01-06T03:06:15.577Z,6.93
2023-01-06T03:08:47.221Z,7.02
2023-01-06T03:11:15.478Z,6.91
2023-01-06T03:13:59.384Z,6.91
2023-01-06T03:16:27.226Z,6.92
2023-01-06T03:18:56.481Z,6.78
2023-01-06T03:21:34.390Z,6.66
2023-01-06T03:24:04.647Z,6.53
2023-01-06T03:26:32.879Z,6.43
2023-01-06T03:29:01.643Z,6.30
2023-01-06T03:31:54.419Z,6.25
2023-01-06T03:34:40.929Z,6.25
2023-01-06T03:37:20.534Z,6.39
2023-01-06T03:40:36.279Z,6.31
2023-01-06T03:43:13.664Z,6.27
2023-01-06T03:45:54.608Z,6.17
2023-01-06T03:48:37.181Z,6.14
2023-01-06T03:51:30.664Z,6.11
2023-01-06T03:54:07.803Z,6.16
2023-01-06T03:56:41.599Z,6.11
2023-01-06T03:59:15.203Z,6.12
2023-01-06T04:01:48.736Z,6.06
2023-01-06T04:04:20.084Z,6.01
2023-01-06T04:06:50.009Z,5.97
2023-01-06T04:09:22.116Z,5.89
2023-01-06T04:12:15.021Z,5.79
2023-01-06T04:14:42.696Z,5.74
2023-01-06T04:17:12.932Z,5.70
2023-01-06T04:19:41.260Z,5.68
2023-01-06T04:22:12.596Z,5.65
2023-01-06T04:24:40.238Z,5.62
2023-01-06T04:27:07.985Z,5.57
2023-01-06T04:29:36.347Z,5.53
2023-01-06T04:32:04.236Z,5.54
2023-01-06T04:34:37.339Z,5.52
2023-01-06T04:37:05.516Z,5.56
2023-01-06T04:39:33.512Z,5.55
2023-01-06T04:42:01.225Z,5.54
2023-01-06T04:44:32.767Z,5.64
2023-01-06T04:47:02.069Z,5.65
2023-01-06T04:49:29.997Z,5.69
2023-01-06T04:51:57.795Z,5.80
2023-01-06T04:54:25.532Z,5.79
2023-01-06T04:56:53.444Z,5.75
2023-01-06T04:59:24.443Z,5.74
2023-01-06T05:01:52.533Z,5.73
2023-01-06T05:04:22.789Z,5.77
2023-01-06T05:06:51.042Z,5.78
2023-01-06T05:09:20.511Z,5.86
2023-01-06T05:11:50.098Z,5.92
2023-01-06T05:14:20.632Z,5.97
2023-01-06T05:16:51.664Z,5.99
2023-01-06T05:19:19.346Z,6.00
2023-01-06T05:21:48.028Z,5.95
2023-01-06T05:24:15.752Z,5.89
2023-01-06T05:26:43.546Z,5.82
2023-01-06T05:29:18.360Z,5.73
2023-01-06T05:31:46.363Z,5.75
2023-01-06T05:34:16.374Z,5.71
2023-01-06T05:36:45.402Z,5.77
2023-01-06T05:39:13.224Z,5.79
2023-01-06T05:41:40.888Z,5.86
2023-01-06T05:44:08.694Z,6.00
2023-01-06T05:46:36.384Z,6.10
2023-01-06T05:49:04.318Z,6.14
2023-01-06T05:51:32.142Z,6.24
2023-01-06T05:54:01.656Z,6.29
2023-01-06T05:56:39.596Z,6.35
2023-01-06T05:59:09.363Z,6.40
2023-01-06T06:01:37.127Z,6.40
2023-01-06T06:04:07.564Z,6.44
2023-01-06T06:06:35.228Z,6.45
2023-01-06T06:09:06.356Z,6.44
2023-01-06T06:11:36.511Z,6.39
2023-01-06T06:14:04.641Z,6.36
2023-01-06T06:16:37.925Z,6.30
2023-01-06T06:19:06.999Z,6.18
2023-01-06T06:21:35.068Z,6.17
2023-01-06T06:24:02.818Z,6.14
2023-01-06T06:26:33.667Z,6.14
2023-01-06T06:29:04.165Z,6.09
2023-01-06T06:31:34.154Z,6.17
2023-01-06T06:34:03.780Z,6.14
2023-01-06T06:36:32.802Z,6.18
2023-01-06T06:39:03.320Z,6.19
2023-01-06T06:41:31.010Z,6.23
2023-01-06T06:44:00.078Z,6.25
2023-01-06T06:46:28.087Z,6.31
2023-01-06T06:48:55.980Z,6.36
2023-01-06T06:51:36.858Z,6.42
2023-01-06T06:54:09.131Z,6.43
2023-01-06T06:56:36.807Z,6.44
2023-01-06T06:59:07.132Z,6.46
2023-01-06T07:01:40.070Z,6.55
2023-01-06T07:04:30.989Z,6.58
2023-01-06T07:07:07.801Z,6.66
2023-01-06T07:09:40.275Z,6.81
2023-01-06T07:12:17.523Z,7.04
2023-01-06T07:14:51.518Z,7.48
2023-01-06T07:17:19.251Z,7.58
2023-01-06T07:19:49.806Z,7.58
2023-01-06T07:22:20.605Z,7.62
2023-01-06T07:27:55.454Z,7.68
2023-01-06T07:30:24.869Z,7.67
2023-01-06T07:32:56.586Z,7.76
2023-01-06T07:35:26.519Z,7.86
2023-01-06T07:38:04.961Z,8.19
2023-01-06T07:40:33.994Z,8.64
2023-01-06T07:43:14.146Z,9.05
2023-01-06T07:45:43.085Z,9.69
2023-01-06T07:48:28.615Z,10.43
2023-01-06T07:50:58.596Z,10.97
2023-01-06T07:53:32.558Z,10.93
2023-01-06T07:56:00.858Z,11.50
2023-01-06T07:58:29.462Z,11.61
2023-01-06T08:00:57.384Z,11.38
2023-01-06T08:03:25.233Z,11.95
2023-01-06T08:05:53.090Z,11.57
2023-01-06T08:08:23.738Z,11.89
2023-01-06T08:10:51.891Z,12.00
2023-01-06T08:13:25.415Z,11.96
2023-01-06T08:15:55.714Z,12.02
2023-01-06T08:18:24.568Z,12.64
2023-01-06T08:20:52.326Z,13.02
2023-01-06T08:23:20.920Z,13.04
2023-01-06T08:25:49.153Z,13.03
2023-01-06T08:28:18.670Z,13.82
2023-01-06T08:30:46.389Z,14.15
2023-01-06T08:33:14.930Z,14.13
2023-01-06T08:35:59.133Z,14.12
2023-01-06T08:38:28.153Z,14.08
2023-01-06T08:41:00.234Z,14.38
2023-01-06T08:43:31.977Z,14.92
2023-01-06T08:46:08.713Z,15.01
2023-01-06T08:48:36.688Z,13.91
2023-01-06T08:51:10.133Z,14.64
2023-01-06T08:53:37.958Z,14.40
2023-01-06T08:56:06.052Z,14.04
2023-01-06T08:58:35.075Z,13.04
2023-01-06T09:01:03.006Z,11.99
2023-01-06T09:03:30.884Z,11.49
2023-01-06T09:06:00.242Z,10.65
2023-01-06T09:08:27.948Z,10.18
2023-01-06T09:10:56.799Z,9.87
2023-01-06T09:13:24.886Z,9.82
2023-01-06T09:15:54.752Z,9.70
2023-01-06T09:18:22.629Z,9.65
2023-01-06T09:20:50.345Z,9.47
2023-01-06T09:23:20.301Z,9.39
2023-01-06T09:25:50.367Z,9.41
2023-01-06T09:28:19.495Z,9.38
2023-01-06T09:30:48.656Z,9.34
2023-01-06T09:33:26.947Z,9.44
2023-01-06T09:35:55.775Z,9.41
2023-01-06T09:38:23.618Z,9.46
2023-01-06T09:41:13.089Z,9.52
2023-01-06T09:44:26.627Z,9.57
2023-01-06T09:46:54.796Z,9.68
2023-01-06T09:49:29.913Z,9.86
2023-01-06T09:52:05.581Z,9.91
2023-01-06T09:54:40.415Z,10.06
2023-01-06T09:57:19.893Z,10.07
2023-01-06T09:59:53.590Z,10.06
2023-01-06T10:02:31.492Z,10.09
2023-01-06T10:05:01.229Z,10.19
2023-01-06T10:07:53.429Z,10.11
2023-01-06T10:11:02.718Z,10.12
2023-01-06T10:13:53.925Z,10.11
2023-01-06T10:17:00.877Z,10.00
2023-01-06T10:20:12.749Z,9.88
2023-01-06T10:23:10.476Z,9.76
2023-01-06T10:26:21.684Z,9.75
2023-01-06T10:28:54.962Z,9.86
2023-01-06T10:31:33.190Z,10.03
2023-01-06T10:34:20.823Z,10.08
2023-01-06T10:36:56.547Z,10.31
2023-01-06T10:39:29.579Z,10.53
2023-01-06T10:42:43.632Z,10.73
2023-01-06T10:45:15.159Z,10.78
2023-01-06T10:47:44.996Z,11.00
2023-01-06T10:50:17.946Z,10.79
2023-01-06T10:52:49.392Z,10.82
2023-01-06T10:55:32.614Z,10.89
2023-01-06T10:58:55.541Z,10.81
2023-01-06T11:01:29.674Z,10.82
2023-01-06T11:04:12.247Z,10.90
2023-01-06T11:06:44.561Z,10.79
2023-01-06T11:09:30.835Z,10.63
2023-01-06T11:12:02.904Z,10.81
2023-01-06T11:14:33.899Z,10.79
2023-01-06T11:17:05.725Z,10.73
2023-01-06T11:19:40.499Z,10.52
2023-01-06T11:22:36.054Z,10.70
2023-01-06T11:25:08.619Z,10.59
2023-01-06T11:27:36.722Z,10.48
2023-01-06T11:30:22.618Z,10.43
2023-01-06T11:32:53.238Z,10.50
2023-01-06T11:35:24.211Z,10.60
2023-01-06T11:37:59.742Z,10.79
2023-01-06T11:43:17.048Z,10.79
2023-01-06T11:45:49.265Z,10.83
2023-01-06T11:48:20.915Z,10.80
2023-01-06T11:50:58.460Z,10.86
2023-01-06T11:53:29.639Z,10.91
2023-01-06T11:56:06.817Z,11.17
2023-01-06T11:59:07.264Z,11.28
2023-01-06T12:01:45.107Z,11.47
2023-01-06T12:04:41.876Z,11.50
2023-01-06T12:07:52.833Z,11.64
2023-01-06T12:10:26.004Z,11.93
2023-01-06T12:12:54.002Z,12.02
2023-01-06T12:15:23.259Z,12.50
2023-01-06T12:17:59.277Z,12.80
2023-01-06T12:20:37.061Z,12.79
2023-01-06T12:23:28.116Z,12.84
2023-01-06T12:26:00.647Z,12.61
2023-01-06T12:28:38.285Z,12.48
2023-01-06T12:31:14.421Z,12.24
2023-01-06T12:34:01.623Z,12.46
2023-01-06T12:37:01.729Z,12.05
2023-01-06T12:39:42.229Z,12.38
2023-01-06T12:42:36.856Z,12.51
2023-01-06T12:45:19.373Z,12.70
2023-01-06T12:47:54.281Z,12.69
2023-01-06T12:50:49.360Z,12.59
2023-01-06T12:53:25.523Z,12.57
2023-01-06T12:55:56.327Z,12.30
2023-01-06T12:58:43.318Z,12.23
2023-01-06T13:01:30.853Z,12.12
2023-01-06T13:04:29.028Z,12.01
2023-01-06T13:07:00.568Z,11.85
2023-01-06T13:15:46.599Z,11.99
2023-01-06T13:18:26.287Z,11.79
2023-01-06T13:21:19.649Z,11.71
2023-01-06T13:24:06.007Z,11.50
2023-01-06T13:26:59.463Z,11.40
2023-01-06T13:29:49.837Z,11.18
2023-01-06T13:32:32.563Z,10.90
2023-01-06T13:35:24.343Z,10.70
2023-01-06T13:38:15.783Z,10.47
2023-01-06T13:40:48.938Z,10.35
2023-01-06T13:43:24.687Z,10.32
2023-01-06T13:45:58.850Z,10.29
2023-01-06T13:48:31.828Z,10.26
2023-01-06T13:51:03.563Z,10.28
2023-01-06T13:53:41.523Z,10.27
2023-01-06T13:56:15.105Z,10.27
2023-01-06T13:58:44.882Z,10.28
2023-01-06T14:01:21.740Z,10.30
2023-01-06T14:03:51.741Z,10.27
2023-01-06T14:06:25.199Z,10.24
2023-01-06T14:08:58.999Z,10.17
2023-01-06T14:11:32.500Z,10.08
2023-01-06T14:14:04.891Z,9.99
2023-01-06T14:16:50.737Z,9.96
2023-01-06T14:19:22.955Z,9.93
2023-01-06T14:21:53.799Z,9.81
2023-01-06T14:24:31.245Z,9.70
2023-01-06T14:27:02.721Z,9.54
2023-01-06T14:30:04.893Z,9.32
2023-01-06T14:33:03.038Z,9.10
2023-01-06T14:35:44.178Z,8.89
2023-01-06T14:38:20.919Z,8.71
2023-01-06T14:40:54.121Z,8.55
2023-01-06T14:43:48.867Z,8.31
2023-01-06T14:46:20.632Z,8.20
2023-01-06T14:48:57.566Z,8.06
2023-01-06T14:51:26.316Z,7.88
2023-01-06T14:54:04.002Z,7.70
2023-01-06T14:56:32.814Z,7.56
2023-01-06T14:59:15.542Z,7.39
2023-01-06T15:01:45.519Z,7.23
2023-01-06T15:04:25.597Z,7.09
2023-01-06T15:07:18.935Z,6.96
2023-01-06T15:09:49.189Z,6.80
2023-01-06T15:12:23.768Z,6.65
2023-01-06T15:14:51.439Z,6.52
2023-01-06T15:17:19.308Z,6.39
2023-01-06T15:19:48.716Z,6.27
2023-01-06T15:22:26.022Z,6.17
2023-01-06T15:24:53.951Z,6.06
2023-01-06T15:27:21.620Z,5.96
2023-01-06T15:29:59.173Z,5.88
2023-01-06T15:32:27.836Z,5.79
2023-01-06T15:34:58.281Z,5.68
2023-01-06T15:37:27.623Z,5.63
2023-01-06T15:39:55.764Z,5.53
2023-01-06T15:42:26.703Z,5.46
2023-01-06T15:45:02.307Z,5.36
2023-01-06T15:47:39.844Z,5.33
2023-01-06T15:50:10.927Z,5.28
2023-01-06T15:52:51.026Z,5.22
2023-01-06T15:55:40.182Z,5.17
2023-01-06T15:58:24.496Z,5.17
2023-01-06T16:01:02.083Z,5.11
2023-01-06T16:03:32.881Z,5.06
2023-01-06T16:06:11.657Z,5.06
2023-01-06T16:08:40.074Z,5.04
2023-01-06T16:11:40.215Z,5.04
2023-01-06T16:14:29.707Z,5.01
2023-01-06T16:17:17.259Z,4.98
2023-01-06T16:19:52.255Z,4.95
2023-01-06T16:22:46.464Z,4.93
2023-01-06T16:25:27.700Z,4.89
2023-01-06T16:27:58.370Z,4.86
2023-01-06T16:30:29.458Z,4.80
2023-01-06T16:33:01.254Z,4.78
2023-01-06T16:35:34.523Z,4.77
2023-01-06T16:38:02.766Z,4.81
2023-01-06T16:40:31.295Z,4.79
2023-01-06T16:43:03.715Z,4.80
2023-01-06T16:45:47.510Z,4.83
2023-01-06T16:48:17.740Z,4.82
2023-01-06T16:50:50.648Z,4.83
2023-01-06T16:53:20.956Z,4.67
2023-01-06T16:55:53.716Z,4.86
2023-01-06T16:58:23.888Z,4.89
2023-01-06T17:00:54.439Z,4.93
2023-01-06T17:03:40.353Z,4.94
2023-01-06T17:06:17.576Z,4.98
2023-01-06T17:08:45.352Z,5.05
2023-01-06T17:11:25.171Z,5.13
2023-01-06T17:14:01.684Z,5.21
2023-01-06T17:16:34.334Z,5.30
2023-01-06T17:19:19.967Z,5.30
2023-01-06T17:21:48.647Z,5.31
2023-01-06T17:24:25.864Z,5.29
2023-01-06T17:26:58.180Z,4.99
2023-01-06T17:29:29.309Z,5.29
2023-01-06T17:32:01.688Z,5.32
2023-01-06T17:34:33.689Z,5.32
2023-01-06T17:37:11.709Z,5.38
2023-01-06T17:39:44.479Z,5.41
2023-01-06T17:42:12.017Z,5.48
2023-01-06T17:44:45.739Z,5.55
2023-01-06T17:47:16.387Z,5.56
2023-01-06T17:49:55.965Z,5.58
2023-01-06T17:52:37.589Z,5.64
2023-01-06T17:55:25.643Z,5.67
2023-01-06T17:57:57.615Z,5.77
2023-01-06T18:00:29.333Z,5.74
2023-01-06T18:03:05.969Z,5.73
2023-01-06T18:05:33.751Z,5.66
2023-01-06T18:08:15.287Z,5.61
2023-01-06T18:10:51.530Z,5.52
2023-01-06T18:13:19.318Z,5.52
2023-01-06T18:15:49.169Z,5.54
2023-01-06T18:18:24.238Z,5.55
2023-01-06T18:20:57.229Z,5.60
2023-01-06T18:23:27.050Z,5.80
2023-01-06T18:25:58.351Z,5.99
2023-01-06T18:28:26.153Z,6.19
2023-01-06T18:30:59.963Z,6.42
2023-01-06T18:33:27.614Z,6.58
2023-01-06T18:35:57.633Z,6.74
2023-01-06T18:38:31.227Z,6.84
2023-01-06T18:40:59.050Z,7.03
2023-01-06T18:43:29.992Z,7.17
2023-01-06T18:46:03.327Z,7.30
2023-01-06T18:48:34.018Z,7.32
2023-01-06T18:51:03.588Z,7.33
2023-01-06T18:53:43.123Z,7.38
2023-01-06T18:56:16.975Z,7.41
2023-01-06T18:58:53.822Z,7.53
2023-01-06T19:01:30.368Z,7.53
2023-01-06T19:04:11.271Z,7.56
2023-01-06T19:06:45.761Z,7.61
2023-01-06T19:09:16.218Z,7.64
2023-01-06T19:11:44.344Z,7.61
2023-01-06T19:14:18.694Z,7.58
2023-01-06T19:16:57.798Z,7.62
2023-01-06T19:19:42.602Z,7.58
2023-01-06T19:22:22.176Z,7.55
2023-01-06T19:25:19.270Z,7.58
2023-01-06T19:27:51.441Z,7.56
2023-01-06T19:30:30.612Z,7.59
2023-01-06T19:33:14.096Z,7.58
2023-01-06T19:35:41.822Z,7.59
2023-01-06T19:38:25.709Z,7.51
2023-01-06T19:40:54.144Z,7.53
2023-01-06T19:43:27.962Z,7.53
2023-01-06T19:45:55.713Z,7.51
2023-01-06T19:48:25.166Z,7.48
2023-01-06T19:51:03.267Z,7.52
2023-01-06T19:54:13.728Z,7.47
2023-01-06T19:56:43.397Z,7.45
2023-01-06T19:59:18.529Z,7.42
2023-01-06T20:01:47.032Z,7.43
2023-01-06T20:04:22.434Z,7.37
2023-01-06T20:06:50.418Z,7.38
2023-01-06T20:09:18.200Z,7.36
2023-01-06T20:11:45.807Z,7.34
2023-01-06T20:14:13.339Z,7.32
2023-01-06T20:16:40.917Z,7.34
2023-01-06T20:19:11.106Z,7.35
2023-01-06T20:21:40.167Z,7.34
2023-01-06T20:24:11.165Z,7.34
2023-01-06T20:26:38.795Z,7.32
2023-01-06T20:29:06.446Z,7.31
2023-01-06T20:31:34.438Z,7.34
2023-01-06T20:34:02.118Z,7.36
2023-01-06T20:36:30.124Z,7.43
2023-01-06T20:38:57.713Z,7.55
2023-01-06T20:41:25.334Z,7.59
2023-01-06T20:43:55.270Z,7.62
2023-01-06T20:46:24.503Z,7.62
2023-01-06T20:48:52.174Z,7.65
2023-01-06T20:51:19.800Z,7.66
2023-01-06T20:53:49.878Z,7.66
2023-01-06T20:56:17.489Z,7.68
2023-01-06T20:58:45.084Z,7.66
2023-01-06T21:01:12.751Z,7.64
2023-01-06T21:03:40.451Z,7.55
2023-01-06T21:06:08.800Z,7.67
2023-01-06T21:08:36.384Z,7.69
2023-01-06T21:11:03.987Z,7.74
2023-01-06T21:13:31.737Z,7.73
2023-01-06T21:15:59.433Z,7.73
2023-01-06T21:18:29.596Z,7.75
2023-01-06T21:20:59.758Z,7.59
2023-01-06T21:23:27.870Z,7.73
2023-01-06T21:25:55.472Z,7.66
2023-01-06T21:28:23.141Z,7.62
2023-01-06T21:30:50.792Z,7.58
2023-01-06T21:33:21.833Z,7.58
2023-01-06T21:35:49.566Z,7.53
2023-01-06T21:38:17.956Z,7.57
2023-01-06T21:40:45.707Z,7.58
2023-01-06T21:43:14.832Z,7.58
2023-01-06T21:45:44.161Z,7.57
2023-01-06T21:48:13.579Z,7.53
2023-01-06T21:50:45.314Z,7.51
2023-01-06T21:53:16.200Z,7.46
2023-01-06T21:55:43.885Z,7.43
2023-01-06T21:58:12.023Z,7.40
2023-01-06T22:00:40.044Z,7.33
2023-01-06T22:03:07.903Z,7.26
2023-01-06T22:05:35.829Z,7.16
2023-01-06T22:08:04.009Z,7.09
2023-01-06T22:10:32.026Z,6.99
2023-01-06T22:13:00.466Z,6.85
2023-01-06T22:15:29.463Z,6.74
2023-01-06T22:17:59.988Z,6.67
2023-01-06T22:20:29.879Z,6.54
2023-01-06T22:23:02.162Z,6.38
2023-01-06T22:25:30.356Z,6.31
2023-01-06T22:27:59.288Z,6.24
2023-01-06T22:30:26.895Z,6.15
2023-01-06T22:32:54.464Z,6.11
2023-01-06T22:35:22.084Z,6.08
2023-01-06T22:37:49.775Z,5.97
2023-01-06T22:40:18.027Z,5.86
2023-01-06T22:42:45.658Z,5.80
2023-01-06T22:45:14.058Z,5.75
2023-01-06T22:47:41.680Z,5.65
2023-01-06T22:50:10.764Z,5.56
2023-01-06T22:52:38.347Z,5.47
2023-01-06T22:55:06.352Z,5.45
2023-01-06T22:57:34.002Z,5.43
2023-01-06T23:00:03.256Z,5.33
2023-01-06T23:02:31.341Z,5.25
2023-01-06T23:05:01.701Z,5.17
2023-01-06T23:07:29.275Z,5.08
2023-01-06T23:09:56.872Z,4.94
2023-01-06T23:12:24.486Z,4.84
2023-01-06T23:14:52.110Z,4.69
2023-01-06T23:17:19.752Z,4.58
2023-01-06T23:19:47.367Z,4.49
2023-01-06T23:22:17.457Z,4.34
2023-01-06T23:24:45.174Z,4.23
2023-01-06T23:27:13.727Z,4.16
2023-01-06T23:29:43.480Z,4.03
2023-01-06T23:32:11.114Z,3.98
2023-01-06T23:34:38.712Z,3.88
2023-01-06T23:37:08.835Z,3.80
2023-01-06T23:39:38.471Z,3.72
2023-01-06T23:42:07.257Z,3.60
2023-01-06T23:44:37.323Z,3.58
2023-01-06T23:47:07.522Z,3.50
2023-01-06T23:49:38.436Z,3.40
2023-01-06T23:52:09.741Z,3.44
2023-01-06T23:54:37.364Z,3.39
2023-01-06T23:57:04.970Z,3.35
2023-01-06T23:59:34.742Z,3.31
